createdAt,value
2022-12-11T00:01:37.547Z,0.10
2022-12-11T00:04:06.137Z,0.10
2022-12-11T00:06:34.434Z,0.10
2022-12-11T00:09:02.876Z,0.10
2022-12-11T00:11:31.274Z,0.10
2022-12-11T00:13:59.655Z,0.10
2022-12-11T00:16:28.093Z,0.10
2022-12-11T00:18:58.055Z,0.10
2022-12-11T00:21:27.122Z,0.10
2022-12-11T00:23:55.486Z,0.10
2022-12-11T00:26:24.125Z,0.10
2022-12-11T00:28:54.831Z,0.10
2022-12-11T00:31:25.236Z,0.10
2022-12-11T00:33:53.697Z,0.10
2022-12-11T00:36:25.175Z,0.10
2022-12-11T00:38:54.113Z,0.10
2022-12-11T00:41:22.873Z,0.10
2022-12-11T00:43:51.468Z,0.10
2022-12-11T00:46:19.969Z,0.10
2022-12-11T00:48:49.904Z,0.10
2022-12-11T00:51:18.269Z,0.10
2022-12-11T00:53:48.198Z,0.10
2022-12-11T00:56:18.722Z,0.10
2022-12-11T00:58:47.414Z,0.10
2022-12-11T01:01:20.394Z,0.10
2022-12-11T01:03:48.927Z,0.10
2022-12-11T01:06:19.248Z,0.10
2022-12-11T01:09:09.735Z,0.10
2022-12-11T01:11:37.697Z,0.10
2022-12-11T01:14:06.373Z,0.10
2022-12-11T01:16:34.853Z,0.10
2022-12-11T01:19:03.395Z,0.10
2022-12-11T01:21:32.075Z,0.10
2022-12-11T01:24:01.825Z,0.10
2022-12-11T01:26:30.797Z,0.10
2022-12-11T01:28:59.288Z,0.10
2022-12-11T01:31:27.705Z,0.10
2022-12-11T01:33:56.154Z,0.10
2022-12-11T01:36:25.255Z,0.00
2022-12-11T01:38:54.582Z,0.00
2022-12-11T01:41:24.549Z,0.00
2022-12-11T01:44:05.377Z,0.00
2022-12-11T01:46:35.234Z,0.00
2022-12-11T01:49:08.056Z,0.10
2022-12-11T01:51:40.307Z,0.00
2022-12-11T01:54:12.506Z,0.10
2022-12-11T01:56:45.051Z,0.10
2022-12-11T01:59:16.041Z,0.10
2022-12-11T02:01:50.566Z,0.00
2022-12-11T02:04:19.811Z,0.00
2022-12-11T02:06:50.447Z,0.00
2022-12-11T02:09:21.405Z,0.00
2022-12-11T02:12:01.961Z,0.00
2022-12-11T02:14:37.688Z,0.00
2022-12-11T02:17:13.010Z,0.00
2022-12-11T02:19:54.135Z,0.00
2022-12-11T02:22:37.155Z,0.10
2022-12-11T02:25:16.933Z,0.00
2022-12-11T02:27:56.519Z,0.10
2022-12-11T02:30:26.862Z,0.00
2022-12-11T02:32:58.145Z,0.00
2022-12-11T02:35:31.684Z,0.10
2022-12-11T02:38:04.196Z,0.10
2022-12-11T02:40:36.423Z,0.10
2022-12-11T02:43:08.313Z,0.10
2022-12-11T02:45:40.332Z,0.10
2022-12-11T02:48:11.418Z,0.10
2022-12-11T02:50:44.399Z,0.10
2022-12-11T02:53:16.134Z,0.10
2022-12-11T02:55:46.045Z,0.10
2022-12-11T02:58:19.266Z,0.10
2022-12-11T03:00:49.280Z,0.00
2022-12-11T03:03:17.746Z,0.00
2022-12-11T03:05:46.847Z,0.00
2022-12-11T03:08:18.885Z,0.00
2022-12-11T03:10:47.545Z,0.00
2022-12-11T03:13:19.444Z,0.00
2022-12-11T03:16:02.769Z,0.00
2022-12-11T03:18:37.509Z,0.00
2022-12-11T03:21:09.463Z,0.00
2022-12-11T03:23:45.886Z,0.00
2022-12-11T03:26:17.017Z,0.00
2022-12-11T03:28:50.606Z,0.00
2022-12-11T03:31:26.201Z,0.00
2022-12-11T03:33:57.653Z,0.00
2022-12-11T03:36:32.058Z,0.10
2022-12-11T03:39:03.186Z,0.10
2022-12-11T03:41:34.264Z,0.10
2022-12-11T03:44:02.906Z,0.10
2022-12-11T03:46:36.495Z,0.10
2022-12-11T03:49:08.804Z,0.10
2022-12-11T03:51:38.754Z,0.10
2022-12-11T03:54:08.155Z,0.10
2022-12-11T03:56:39.991Z,0.10
2022-12-11T03:59:08.995Z,0.10
2022-12-11T04:01:38.908Z,0.10
2022-12-11T04:04:07.672Z,0.00
2022-12-11T04:06:36.157Z,0.00
2022-12-11T04:09:04.839Z,0.00
2022-12-11T04:11:36.155Z,0.00
2022-12-11T04:14:22.980Z,0.10
2022-12-11T04:16:52.727Z,0.00
2022-12-11T04:19:38.755Z,0.00
2022-12-11T04:22:30.174Z,0.10
2022-12-11T04:24:58.646Z,0.10
2022-12-11T04:27:44.755Z,0.10
2022-12-11T04:30:15.908Z,0.10
2022-12-11T04:32:45.644Z,0.10
2022-12-11T04:35:14.469Z,0.10
2022-12-11T04:37:42.977Z,0.10
2022-12-11T04:40:13.948Z,0.10
2022-12-11T04:42:42.397Z,0.10
2022-12-11T04:45:12.560Z,0.10
2022-12-11T04:47:42.263Z,0.10
2022-12-11T04:50:15.516Z,0.10
2022-12-11T04:52:44.399Z,0.10
2022-12-11T04:55:13.805Z,0.10
2022-12-11T04:57:42.705Z,0.10
2022-12-11T05:00:13.615Z,0.10
2022-12-11T05:02:43.283Z,0.10
2022-12-11T05:05:14.461Z,0.10
2022-12-11T05:07:43.868Z,0.10
2022-12-11T05:10:12.315Z,0.10
2022-12-11T05:12:40.766Z,0.10
2022-12-11T05:15:10.215Z,0.10
2022-12-11T05:17:39.031Z,0.10
2022-12-11T05:20:08.744Z,0.10
2022-12-11T05:22:39.278Z,0.10
2022-12-11T05:25:09.220Z,0.10
2022-12-11T05:27:37.906Z,0.10
2022-12-11T05:30:07.674Z,0.10
2022-12-11T05:32:36.133Z,0.10
2022-12-11T05:35:04.907Z,0.10
2022-12-11T05:37:35.094Z,0.10
2022-12-11T05:40:06.525Z,0.10
2022-12-11T05:42:35.423Z,0.10
2022-12-11T05:45:05.011Z,0.10
2022-12-11T05:47:33.797Z,0.10
2022-12-11T05:50:02.249Z,0.10
2022-12-11T05:52:32.606Z,0.10
2022-12-11T05:55:01.183Z,0.00
2022-12-11T05:57:30.899Z,0.00
2022-12-11T05:59:59.447Z,0.00
2022-12-11T06:02:28.547Z,0.00
2022-12-11T06:04:57.015Z,0.00
2022-12-11T06:07:26.033Z,0.00
2022-12-11T06:09:54.396Z,0.00
2022-12-11T06:12:22.684Z,0.00
2022-12-11T06:14:52.388Z,0.00
2022-12-11T06:17:20.765Z,0.00
2022-12-11T06:19:49.129Z,0.00
2022-12-11T06:22:17.530Z,0.00
2022-12-11T06:24:45.954Z,0.00
2022-12-11T06:27:14.807Z,0.00
2022-12-11T06:29:43.154Z,0.00
2022-12-11T06:32:12.886Z,0.00
2022-12-11T06:34:41.231Z,0.00
2022-12-11T06:37:09.478Z,0.00
2022-12-11T06:39:38.085Z,0.00
2022-12-11T06:42:06.774Z,0.00
2022-12-11T06:44:35.065Z,0.00
2022-12-11T06:47:04.618Z,0.00
2022-12-11T06:49:34.499Z,0.00
2022-12-11T06:52:02.825Z,0.00
2022-12-11T06:54:31.186Z,0.00
2022-12-11T06:56:59.560Z,0.00
2022-12-11T06:59:28.214Z,0.00
2022-12-11T07:01:56.852Z,0.00
2022-12-11T07:04:27.453Z,0.00
2022-12-11T07:06:57.477Z,0.00
2022-12-11T07:09:26.154Z,0.00
2022-12-11T07:11:54.915Z,0.00
2022-12-11T07:14:23.251Z,0.00
2022-12-11T07:16:51.927Z,0.00
2022-12-11T07:19:20.467Z,0.00
2022-12-11T07:21:49.085Z,0.00
2022-12-11T07:24:19.155Z,0.00
2022-12-11T07:26:47.754Z,0.00
2022-12-11T07:29:16.218Z,0.00
2022-12-11T07:31:45.192Z,0.00
2022-12-11T07:34:15.124Z,0.00
2022-12-11T07:36:44.219Z,0.00
2022-12-11T07:39:13.606Z,0.00
2022-12-11T07:41:43.447Z,0.00
2022-12-11T07:44:12.245Z,0.00
2022-12-11T07:46:41.125Z,0.00
2022-12-11T07:49:09.608Z,0.00
2022-12-11T07:51:39.670Z,0.00
2022-12-11T07:54:10.736Z,0.00
2022-12-11T07:56:41.911Z,0.00
2022-12-11T07:59:14.051Z,0.00
2022-12-11T08:01:43.885Z,0.00
2022-12-11T08:04:16.064Z,0.00
2022-12-11T08:06:45.593Z,0.00
2022-12-11T08:09:21.020Z,0.00
2022-12-11T08:11:52.124Z,0.00
2022-12-11T08:14:23.179Z,0.00
2022-12-11T08:16:52.163Z,0.00
2022-12-11T08:19:22.356Z,0.00
2022-12-11T08:21:52.155Z,0.00
2022-12-11T08:24:22.169Z,0.00
2022-12-11T08:26:51.452Z,0.00
2022-12-11T08:29:24.132Z,0.00
2022-12-11T08:31:53.660Z,0.00
2022-12-11T08:34:23.555Z,0.00
2022-12-11T08:36:52.984Z,0.00
2022-12-11T08:39:21.723Z,0.00
2022-12-11T08:41:50.478Z,0.00
2022-12-11T08:44:19.985Z,0.00
2022-12-11T08:46:52.541Z,0.00
2022-12-11T08:49:20.993Z,0.00
2022-12-11T08:51:49.485Z,0.00
2022-12-11T08:54:17.815Z,0.00
2022-12-11T08:56:46.254Z,0.00
2022-12-11T08:59:14.655Z,0.00
2022-12-11T09:01:44.129Z,0.00
2022-12-11T09:04:14.075Z,0.00
2022-12-11T09:06:42.564Z,0.10
2022-12-11T09:09:11.160Z,0.10
2022-12-11T09:11:40.206Z,0.10
2022-12-11T09:14:09.047Z,0.00
2022-12-11T09:16:41.910Z,0.00
2022-12-11T09:19:15.091Z,0.00
2022-12-11T09:21:45.259Z,-0.10
2022-12-11T09:24:15.177Z,0.00
2022-12-11T09:26:43.754Z,0.00
2022-12-11T09:29:13.128Z,0.00
2022-12-11T09:31:42.122Z,0.00
2022-12-11T09:34:14.672Z,0.00
2022-12-11T09:36:44.803Z,0.00
2022-12-11T09:39:14.578Z,0.00
2022-12-11T09:41:55.794Z,0.00
2022-12-11T09:44:35.825Z,0.00
2022-12-11T09:47:04.634Z,0.00
2022-12-11T09:49:39.590Z,0.00
2022-12-11T09:52:14.972Z,0.00
2022-12-11T09:54:49.066Z,-0.10
2022-12-11T09:57:33.152Z,0.00
2022-12-11T10:00:15.438Z,0.00
2022-12-11T10:02:59.820Z,0.00
2022-12-11T10:05:35.520Z,0.00
2022-12-11T10:08:15.892Z,0.00
2022-12-11T10:10:47.453Z,0.00
2022-12-11T10:13:27.713Z,0.00
2022-12-11T10:16:01.527Z,0.00
2022-12-11T10:18:32.467Z,0.00
2022-12-11T10:21:06.262Z,0.00
2022-12-11T10:23:41.940Z,0.00
2022-12-11T10:26:15.993Z,0.00
2022-12-11T10:28:45.076Z,0.00
2022-12-11T10:31:19.460Z,0.00
2022-12-11T10:33:58.125Z,0.00
2022-12-11T10:36:31.464Z,0.00
2022-12-11T10:39:00.203Z,0.00
2022-12-11T10:41:39.211Z,0.00
2022-12-11T10:44:18.088Z,0.00
2022-12-11T10:46:47.033Z,0.00
2022-12-11T10:49:26.974Z,0.00
2022-12-11T10:51:57.208Z,0.00
2022-12-11T10:54:34.974Z,0.00
2022-12-11T10:57:04.543Z,0.00
2022-12-11T10:59:38.188Z,0.00
2022-12-11T11:02:08.704Z,0.00
2022-12-11T11:04:39.267Z,-0.10
2022-12-11T11:07:15.503Z,-0.10
2022-12-11T11:09:44.704Z,-0.10
2022-12-11T11:12:22.299Z,0.00
2022-12-11T11:15:01.236Z,-0.10
2022-12-11T11:17:34.900Z,0.00
2022-12-11T11:20:14.887Z,0.00
2022-12-11T11:22:48.621Z,-0.10
2022-12-11T11:25:22.772Z,-0.10
2022-12-11T11:27:54.013Z,-0.10
2022-12-11T11:30:25.556Z,-0.10
2022-12-11T11:32:56.926Z,-0.10
2022-12-11T11:35:28.096Z,-0.10
2022-12-11T11:38:06.708Z,0.00
2022-12-11T11:40:40.786Z,0.00
2022-12-11T11:43:18.897Z,0.00
2022-12-11T11:45:53.420Z,0.00
2022-12-11T11:48:35.079Z,0.10
2022-12-11T11:51:14.932Z,0.10
2022-12-11T11:53:50.396Z,0.10
2022-12-11T11:56:23.047Z,0.10
2022-12-11T11:59:03.175Z,0.20
2022-12-11T12:01:32.006Z,0.20
2022-12-11T12:04:02.715Z,0.20
2022-12-11T12:06:41.419Z,0.20
2022-12-11T12:09:25.457Z,0.20
2022-12-11T12:12:01.014Z,0.20
2022-12-11T12:17:31.647Z,0.20
2022-12-11T12:20:13.133Z,0.20
2022-12-11T12:22:54.443Z,0.30
2022-12-11T12:25:31.293Z,0.20
2022-12-11T12:28:11.884Z,0.30
2022-12-11T12:30:50.226Z,0.30
2022-12-11T12:33:30.613Z,0.30
2022-12-11T12:36:12.386Z,0.20
2022-12-11T12:38:54.205Z,0.30
2022-12-11T12:41:31.569Z,0.20
2022-12-11T12:44:13.872Z,0.30
2022-12-11T12:46:52.639Z,0.30
2022-12-11T12:49:31.817Z,0.30
2022-12-11T12:52:01.784Z,0.30
2022-12-11T12:54:31.487Z,0.30
2022-12-11T12:57:04.289Z,0.30
2022-12-11T12:59:32.982Z,0.20
2022-12-11T13:02:04.008Z,0.20
2022-12-11T13:04:59.216Z,0.20
2022-12-11T13:07:30.952Z,0.20
2022-12-11T13:10:06.664Z,0.20
2022-12-11T13:12:47.120Z,0.20
2022-12-11T13:15:35.366Z,0.20
2022-12-11T13:18:06.336Z,0.20
2022-12-11T13:20:35.985Z,0.20
2022-12-11T13:23:18.554Z,0.20
2022-12-11T13:25:50.410Z,0.20
2022-12-11T13:28:30.019Z,0.20
2022-12-11T13:31:01.053Z,0.20
2022-12-11T13:33:30.626Z,0.20
2022-12-11T13:36:31.808Z,0.20
2022-12-11T13:39:05.691Z,0.20
2022-12-11T13:41:37.637Z,0.20
2022-12-11T13:44:08.426Z,0.20
2022-12-11T13:46:39.187Z,0.20
2022-12-11T13:49:08.972Z,0.20
2022-12-11T13:51:37.983Z,0.20
2022-12-11T13:54:17.052Z,0.10
2022-12-11T13:56:56.734Z,0.10
2022-12-11T13:59:33.084Z,0.10
2022-12-11T14:02:06.252Z,0.10
2022-12-11T14:04:36.453Z,0.10
2022-12-11T14:07:10.718Z,0.10
2022-12-11T14:09:44.247Z,0.10
2022-12-11T14:12:18.702Z,0.10
2022-12-11T14:14:52.688Z,0.10
2022-12-11T14:17:27.223Z,0.10
2022-12-11T14:19:58.046Z,0.10
2022-12-11T14:22:28.893Z,0.10
2022-12-11T14:24:59.576Z,0.10
2022-12-11T14:27:28.807Z,0.10
2022-12-11T14:29:58.907Z,0.10
2022-12-11T14:32:33.577Z,0.10
2022-12-11T14:35:05.596Z,0.10
2022-12-11T14:37:37.642Z,0.10
2022-12-11T14:40:09.329Z,0.10
2022-12-11T14:42:42.046Z,0.10
2022-12-11T14:45:22.110Z,0.10
2022-12-11T14:47:52.522Z,0.10
2022-12-11T14:50:24.139Z,0.10
2022-12-11T14:52:56.448Z,0.10
2022-12-11T14:55:28.281Z,0.10
2022-12-11T14:57:59.288Z,0.10
2022-12-11T15:00:32.845Z,0.10
2022-12-11T15:03:03.752Z,0.00
2022-12-11T15:05:40.393Z,0.10
2022-12-11T15:08:25.006Z,0.00
2022-12-11T15:11:06.840Z,0.00
2022-12-11T15:13:36.896Z,0.00
2022-12-11T15:16:08.908Z,0.00
2022-12-11T15:18:40.656Z,0.00
2022-12-11T15:21:12.514Z,0.00
2022-12-11T15:23:51.626Z,0.00
2022-12-11T15:26:21.126Z,0.00
2022-12-11T15:29:00.201Z,-0.10
2022-12-11T15:31:33.458Z,-0.10
2022-12-11T15:34:02.023Z,-0.10
2022-12-11T15:36:34.791Z,-0.10
2022-12-11T15:39:04.335Z,-0.10
2022-12-11T15:41:34.799Z,-0.10
2022-12-11T15:44:04.803Z,-0.10
2022-12-11T15:46:38.937Z,-0.10
2022-12-11T15:49:12.829Z,-0.10
2022-12-11T15:51:43.322Z,-0.10
2022-12-11T15:54:12.103Z,-0.10
2022-12-11T15:56:40.877Z,-0.10
2022-12-11T15:59:09.283Z,-0.10
2022-12-11T16:01:39.165Z,-0.10
2022-12-11T16:04:07.706Z,-0.10
2022-12-11T16:06:36.384Z,-0.10
2022-12-11T16:09:05.794Z,-0.10
2022-12-11T16:11:34.477Z,-0.10
2022-12-11T16:14:04.537Z,-0.10
2022-12-11T16:16:33.444Z,-0.10
2022-12-11T16:19:03.356Z,-0.10
2022-12-11T16:21:31.617Z,-0.10
2022-12-11T16:24:00.045Z,-0.10
2022-12-11T16:26:28.742Z,-0.10
2022-12-11T16:28:57.055Z,-0.10
2022-12-11T16:31:25.635Z,-0.10
2022-12-11T16:33:54.104Z,-0.10
2022-12-11T16:36:25.207Z,-0.10
2022-12-11T16:38:54.423Z,-0.10
2022-12-11T16:41:23.998Z,-0.10
2022-12-11T16:43:52.936Z,-0.10
2022-12-11T16:46:22.272Z,-0.10
2022-12-11T16:48:51.351Z,-0.10
2022-12-11T16:51:19.716Z,-0.10
2022-12-11T16:53:49.738Z,-0.10
2022-12-11T16:56:18.018Z,-0.10
2022-12-11T16:58:47.834Z,0.00
2022-12-11T17:01:17.486Z,0.00
2022-12-11T17:03:46.135Z,-0.10
2022-12-11T17:06:16.901Z,-0.10
2022-12-11T17:08:45.245Z,-0.10
2022-12-11T17:11:17.524Z,-0.10
2022-12-11T17:13:46.297Z,-0.10
2022-12-11T17:16:17.276Z,-0.10
2022-12-11T17:18:45.805Z,-0.10
2022-12-11T17:21:16.055Z,-0.10
2022-12-11T17:23:44.583Z,-0.10
2022-12-11T17:26:15.574Z,-0.10
2022-12-11T17:28:44.505Z,-0.10
2022-12-11T17:31:16.619Z,-0.10
2022-12-11T17:33:45.413Z,-0.10
2022-12-11T17:36:16.098Z,-0.10
2022-12-11T17:38:44.518Z,-0.10
2022-12-11T17:41:20.377Z,-0.10
2022-12-11T17:43:49.538Z,-0.10
2022-12-11T17:46:18.283Z,-0.10
2022-12-11T17:48:47.016Z,-0.10
2022-12-11T17:51:24.004Z,-0.10
2022-12-11T17:53:52.832Z,-0.10
2022-12-11T17:56:22.729Z,-0.10
2022-12-11T17:58:51.044Z,-0.10
2022-12-11T18:01:19.680Z,-0.10
2022-12-11T18:03:48.282Z,-0.10
2022-12-11T18:06:17.906Z,-0.10
2022-12-11T18:08:46.806Z,-0.10
2022-12-11T18:11:17.557Z,-0.10
2022-12-11T18:13:47.836Z,-0.10
2022-12-11T18:16:18.199Z,-0.10
2022-12-11T18:18:48.064Z,-0.10
2022-12-11T18:21:17.839Z,-0.10
2022-12-11T18:23:46.737Z,-0.10
2022-12-11T18:26:15.877Z,-0.10
2022-12-11T18:28:46.808Z,-0.10
2022-12-11T18:31:15.762Z,-0.10
2022-12-11T18:33:45.495Z,-0.10
2022-12-11T18:36:14.713Z,-0.10
2022-12-11T18:38:43.677Z,-0.10
2022-12-11T18:41:14.085Z,-0.10
2022-12-11T18:43:43.575Z,-0.10
2022-12-11T18:46:15.516Z,-0.10
2022-12-11T18:48:45.374Z,-0.10
2022-12-11T18:51:17.295Z,-0.10
2022-12-11T18:53:46.356Z,-0.10
2022-12-11T18:56:17.338Z,0.00
2022-12-11T18:58:46.745Z,0.00
2022-12-11T19:01:19.054Z,0.00
2022-12-11T19:03:48.045Z,0.00
2022-12-11T19:06:19.436Z,0.00
2022-12-11T19:08:48.412Z,0.00
2022-12-11T19:11:17.792Z,0.00
2022-12-11T19:13:46.676Z,0.00
2022-12-11T19:16:23.001Z,0.00
2022-12-11T19:18:52.106Z,0.00
2022-12-11T19:21:20.988Z,-0.10
2022-12-11T19:23:49.898Z,-0.10
2022-12-11T19:26:20.992Z,-0.10
2022-12-11T19:28:51.256Z,0.00
2022-12-11T19:31:24.158Z,0.00
2022-12-11T19:33:52.696Z,-0.10
2022-12-11T19:36:23.920Z,-0.10
2022-12-11T19:38:56.473Z,-0.10
2022-12-11T19:41:30.396Z,-0.10
2022-12-11T19:44:00.222Z,-0.10
2022-12-11T19:46:30.833Z,-0.10
2022-12-11T19:49:00.567Z,-0.10
2022-12-11T19:51:31.418Z,-0.10
2022-12-11T19:54:00.877Z,-0.10
2022-12-11T19:56:30.041Z,-0.10
2022-12-11T19:59:01.063Z,-0.10
2022-12-11T20:01:33.267Z,-0.10
2022-12-11T20:04:03.547Z,-0.10
2022-12-11T20:06:33.690Z,-0.10
2022-12-11T20:09:03.680Z,-0.10
2022-12-11T20:11:33.752Z,-0.10
2022-12-11T20:14:02.135Z,-0.10
2022-12-11T20:17:08.716Z,-0.10
2022-12-11T20:19:20.452Z,-0.10
2022-12-11T20:21:49.285Z,-0.10
2022-12-11T20:24:17.836Z,-0.10
2022-12-11T20:26:47.165Z,-0.10
2022-12-11T20:29:15.852Z,-0.10
2022-12-11T20:31:46.778Z,-0.10
2022-12-11T20:34:15.709Z,-0.10
2022-12-11T20:36:44.505Z,-0.10
2022-12-11T20:39:13.222Z,-0.10
2022-12-11T20:41:42.256Z,-0.20
2022-12-11T20:44:10.942Z,-0.20
2022-12-11T20:46:39.506Z,-0.20
2022-12-11T20:49:13.305Z,-0.20
2022-12-11T20:51:42.419Z,-0.20
2022-12-11T20:54:11.324Z,-0.20
2022-12-11T20:56:40.006Z,-0.20
2022-12-11T20:59:08.524Z,-0.20
2022-12-11T21:01:37.266Z,-0.20
2022-12-11T21:04:05.664Z,-0.20
2022-12-11T21:06:37.656Z,-0.20
2022-12-11T21:09:09.024Z,-0.20
2022-12-11T21:11:37.596Z,-0.20
2022-12-11T21:14:06.947Z,-0.20
2022-12-11T21:16:37.824Z,-0.20
2022-12-11T21:19:10.126Z,-0.20
2022-12-11T21:21:42.224Z,-0.30
2022-12-11T21:24:16.180Z,-0.30
2022-12-11T21:26:44.494Z,-0.30
2022-12-11T21:29:13.254Z,-0.30
2022-12-11T21:31:41.920Z,-0.30
2022-12-11T21:34:11.197Z,-0.30
2022-12-11T21:36:39.538Z,-0.30
2022-12-11T21:39:11.986Z,-0.30
2022-12-11T21:41:41.844Z,-0.30
2022-12-11T21:47:00.130Z,-0.30
2022-12-11T21:49:28.680Z,-0.30
2022-12-11T21:51:57.238Z,-0.30
2022-12-11T21:54:27.529Z,-0.30
2022-12-11T21:56:56.594Z,-0.30
2022-12-11T21:59:25.097Z,-0.30
2022-12-11T22:01:53.615Z,-0.30
2022-12-11T22:04:21.966Z,-0.30
2022-12-11T22:06:50.586Z,-0.30
2022-12-11T22:09:19.488Z,-0.30
2022-12-11T22:11:52.516Z,-0.30
2022-12-11T22:14:23.703Z,-0.30
2022-12-11T22:16:52.284Z,-0.30
2022-12-11T22:19:20.814Z,-0.30
2022-12-11T22:21:49.335Z,-0.30
2022-12-11T22:24:17.941Z,-0.30
2022-12-11T22:26:46.377Z,-0.30
2022-12-11T22:29:16.194Z,-0.30
2022-12-11T22:31:44.665Z,-0.30
2022-12-11T22:34:13.275Z,-0.30
2022-12-11T22:36:42.002Z,-0.30
2022-12-11T22:39:10.574Z,-0.30
2022-12-11T22:41:42.288Z,-0.30
2022-12-11T22:44:16.803Z,-0.30
2022-12-11T22:46:49.670Z,-0.30
2022-12-11T22:49:19.382Z,-0.30
2022-12-11T22:51:47.839Z,-0.30
2022-12-11T22:54:16.404Z,-0.30
2022-12-11T22:56:45.055Z,-0.30
2022-12-11T23:03:03.274Z,-0.30
2022-12-11T23:05:33.012Z,-0.30
2022-12-11T23:08:01.470Z,-0.30
2022-12-11T23:10:30.157Z,-0.30
2022-12-11T23:12:58.459Z,-0.30
2022-12-11T23:15:26.819Z,-0.30
2022-12-11T23:17:55.002Z,-0.40
2022-12-11T23:20:24.898Z,-0.30
2022-12-11T23:22:53.122Z,-0.30
2022-12-11T23:25:21.645Z,-0.40
2022-12-11T23:27:49.872Z,-0.40
2022-12-11T23:30:18.202Z,-0.40
2022-12-11T23:32:46.451Z,-0.40
2022-12-11T23:35:14.955Z,-0.40
2022-12-11T23:37:45.012Z,-0.40
2022-12-11T23:40:14.582Z,-0.40
2022-12-11T23:42:43.029Z,-0.40
2022-12-11T23:45:11.759Z,-0.40
2022-12-11T23:47:40.297Z,-0.40
2022-12-11T23:50:09.004Z,-0.40
2022-12-11T23:52:37.547Z,-0.40
2022-12-11T23:55:08.783Z,-0.40
2022-12-11T23:57:37.850Z,-0.40
